createdAt,value
2023-02-11T00:01:18.866Z,66.21
2023-02-11T00:03:47.585Z,65.99
2023-02-11T00:06:15.182Z,64.29
2023-02-11T00:08:42.681Z,63.34
2023-02-11T00:11:11.647Z,63.96
2023-02-11T00:13:38.865Z,60.35
2023-02-11T00:16:06.593Z,59.97
2023-02-11T00:18:33.177Z,59.80
2023-02-11T00:21:00.805Z,60.71
2023-02-11T00:23:29.397Z,61.40
2023-02-11T00:25:55.969Z,61.99
2023-02-11T00:28:24.979Z,62.37
2023-02-11T00:30:52.286Z,62.54
2023-02-11T00:33:20.816Z,63.63
2023-02-11T00:35:48.823Z,63.59
2023-02-11T00:38:17.156Z,63.84
2023-02-11T00:40:46.045Z,63.93
2023-02-11T00:43:14.768Z,64.27
2023-02-11T00:45:41.942Z,64.54
2023-02-11T00:48:11.024Z,64.70
2023-02-11T00:50:39.169Z,65.06
2023-02-11T00:53:06.775Z,65.45
2023-02-11T00:55:35.400Z,64.79
2023-02-11T00:58:04.607Z,64.61
2023-02-11T01:00:31.545Z,63.40
2023-02-11T01:02:59.198Z,61.95
2023-02-11T01:05:27.977Z,60.08
2023-02-11T01:07:55.490Z,59.58
2023-02-11T01:10:24.126Z,59.14
2023-02-11T01:12:52.727Z,58.93
2023-02-11T01:15:21.313Z,58.72
2023-02-11T01:17:48.909Z,58.68
2023-02-11T01:20:16.728Z,60.24
2023-02-11T01:22:44.132Z,60.68
2023-02-11T01:25:12.898Z,60.81
2023-02-11T01:27:42.030Z,60.78
2023-02-11T01:30:08.914Z,61.11
2023-02-11T01:32:38.041Z,61.18
2023-02-11T01:35:05.134Z,59.96
2023-02-11T01:37:32.721Z,59.31
2023-02-11T01:40:00.301Z,58.56
2023-02-11T01:42:28.902Z,58.89
2023-02-11T01:44:56.501Z,59.58
2023-02-11T01:47:25.112Z,59.61
2023-02-11T01:49:52.694Z,59.95
2023-02-11T01:52:20.309Z,60.80
2023-02-11T01:54:47.957Z,60.63
2023-02-11T01:57:31.588Z,61.21
2023-02-11T02:00:00.827Z,61.30
2023-02-11T02:02:28.806Z,61.50
2023-02-11T02:04:57.747Z,61.25
2023-02-11T02:07:24.986Z,61.58
2023-02-11T02:09:52.588Z,62.29
2023-02-11T02:12:21.201Z,62.20
2023-02-11T02:14:48.892Z,62.87
2023-02-11T02:17:16.390Z,63.08
2023-02-11T02:19:42.996Z,63.55
2023-02-11T02:22:11.759Z,63.74
2023-02-11T02:24:40.198Z,64.19
2023-02-11T02:27:09.460Z,64.67
2023-02-11T02:29:36.438Z,64.67
2023-02-11T02:32:04.032Z,65.20
2023-02-11T02:34:33.644Z,65.18
2023-02-11T02:37:02.248Z,65.93
2023-02-11T02:39:29.953Z,66.15
2023-02-11T02:41:57.440Z,66.25
2023-02-11T02:44:26.044Z,65.66
2023-02-11T02:46:54.637Z,65.86
2023-02-11T02:49:23.240Z,66.06
2023-02-11T02:51:52.449Z,66.88
2023-02-11T02:54:19.429Z,66.77
2023-02-11T02:56:48.312Z,67.23
2023-02-11T02:59:16.640Z,68.08
2023-02-11T03:01:45.600Z,68.31
2023-02-11T03:04:13.841Z,67.95
2023-02-11T03:06:42.439Z,67.90
2023-02-11T03:09:11.666Z,68.16
2023-02-11T03:11:39.686Z,68.57
2023-02-11T03:14:08.615Z,68.81
2023-02-11T03:16:36.965Z,69.02
2023-02-11T03:19:05.445Z,69.03
2023-02-11T03:21:32.090Z,69.03
2023-02-11T03:24:00.661Z,69.30
2023-02-11T03:26:29.262Z,69.27
2023-02-11T03:28:57.856Z,69.35
2023-02-11T03:31:25.536Z,69.43
2023-02-11T03:33:54.065Z,68.97
2023-02-11T03:36:22.684Z,69.59
2023-02-11T03:38:51.859Z,68.82
2023-02-11T03:41:20.845Z,68.53
2023-02-11T03:43:48.505Z,68.96
2023-02-11T03:46:16.118Z,68.52
2023-02-11T03:48:44.969Z,69.09
2023-02-11T03:51:13.327Z,68.32
2023-02-11T03:53:40.886Z,68.31
2023-02-11T03:56:08.464Z,68.41
2023-02-11T03:58:36.086Z,68.42
2023-02-11T04:01:04.800Z,68.33
2023-02-11T04:03:32.441Z,68.65
2023-02-11T04:05:59.982Z,69.97
2023-02-11T04:08:27.608Z,69.51
2023-02-11T04:10:56.255Z,69.70
2023-02-11T04:13:24.817Z,69.38
2023-02-11T04:15:53.719Z,69.62
2023-02-11T04:18:22.078Z,69.33
2023-02-11T04:20:49.663Z,70.06
2023-02-11T04:23:18.294Z,69.18
2023-02-11T04:25:46.909Z,69.63
2023-02-11T04:28:15.595Z,68.57
2023-02-11T04:30:44.271Z,68.90
2023-02-11T04:33:11.777Z,68.40
2023-02-11T04:35:40.407Z,67.16
2023-02-11T04:38:08.018Z,68.26
2023-02-11T04:40:35.578Z,68.71
2023-02-11T04:43:03.174Z,67.64
2023-02-11T04:45:31.873Z,67.92
2023-02-11T04:48:00.519Z,68.64
2023-02-11T04:50:28.265Z,68.48
2023-02-11T04:52:57.078Z,69.25
2023-02-11T04:55:25.310Z,68.73
2023-02-11T04:57:53.908Z,68.47
2023-02-11T05:00:21.503Z,68.96
2023-02-11T05:02:50.097Z,69.82
2023-02-11T05:05:19.048Z,69.78
2023-02-11T05:07:47.352Z,70.21
2023-02-11T05:10:14.965Z,71.19
2023-02-11T05:12:43.543Z,70.24
2023-02-11T05:15:12.213Z,69.88
2023-02-11T05:17:41.438Z,69.79
2023-02-11T05:20:09.532Z,70.17
2023-02-11T05:22:38.132Z,70.09
2023-02-11T05:25:07.002Z,70.48
2023-02-11T05:27:35.325Z,70.53
2023-02-11T05:30:04.245Z,71.18
2023-02-11T05:32:31.510Z,71.40
2023-02-11T05:34:59.108Z,71.70
2023-02-11T05:37:26.807Z,70.84
2023-02-11T05:39:54.302Z,71.46
2023-02-11T05:42:22.898Z,71.59
2023-02-11T05:44:52.085Z,71.60
2023-02-11T05:47:20.159Z,71.51
2023-02-11T05:49:49.154Z,71.26
2023-02-11T05:52:17.411Z,71.39
2023-02-11T05:54:46.020Z,71.48
2023-02-11T05:57:14.977Z,71.68
2023-02-11T05:59:43.238Z,71.87
2023-02-11T06:02:11.857Z,72.16
2023-02-11T06:04:39.556Z,71.56
2023-02-11T06:07:08.171Z,71.72
2023-02-11T06:09:35.779Z,71.64
2023-02-11T06:12:04.871Z,71.50
2023-02-11T06:14:31.971Z,72.16
2023-02-11T06:17:00.751Z,72.08
2023-02-11T06:19:28.329Z,72.49
2023-02-11T06:21:56.969Z,72.17
2023-02-11T06:24:51.101Z,72.32
2023-02-11T06:27:13.261Z,71.19
2023-02-11T06:29:41.845Z,71.29
2023-02-11T06:32:28.161Z,70.86
2023-02-11T06:34:59.893Z,71.87
2023-02-11T06:37:28.825Z,71.14
2023-02-11T06:39:57.839Z,70.89
2023-02-11T06:42:24.996Z,71.06
2023-02-11T06:44:52.615Z,71.56
2023-02-11T06:47:21.868Z,71.43
2023-02-11T06:49:49.835Z,71.04
2023-02-11T06:52:19.037Z,71.50
2023-02-11T06:54:47.026Z,71.78
2023-02-11T06:57:14.661Z,71.24
2023-02-11T06:59:43.237Z,72.13
2023-02-11T07:02:11.937Z,71.63
2023-02-11T07:04:40.851Z,71.98
2023-02-11T07:07:09.084Z,72.44
2023-02-11T07:09:37.671Z,71.96
2023-02-11T07:12:05.243Z,71.92
2023-02-11T07:14:34.947Z,71.82
2023-02-11T07:17:03.937Z,71.82
2023-02-11T07:19:33.092Z,71.86
2023-02-11T07:22:01.848Z,72.15
2023-02-11T07:24:29.431Z,71.56
2023-02-11T07:26:57.023Z,71.73
2023-02-11T07:29:24.625Z,72.15
2023-02-11T07:31:53.427Z,72.31
2023-02-11T07:34:21.896Z,72.01
2023-02-11T07:36:49.419Z,72.34
2023-02-11T07:39:18.075Z,72.61
2023-02-11T07:41:46.656Z,72.09
2023-02-11T07:44:14.213Z,72.19
2023-02-11T07:46:41.093Z,71.97
2023-02-11T07:49:10.248Z,71.88
2023-02-11T07:51:38.239Z,72.18
2023-02-11T07:54:07.159Z,71.95
2023-02-11T07:56:35.494Z,72.01
2023-02-11T07:59:04.118Z,71.99
2023-02-11T08:01:31.708Z,72.51
2023-02-11T08:04:00.731Z,71.63
2023-02-11T08:06:28.955Z,72.77
2023-02-11T08:08:58.162Z,73.06
2023-02-11T08:11:25.218Z,73.60
2023-02-11T08:13:53.825Z,74.72
2023-02-11T08:16:21.457Z,75.02
2023-02-11T08:18:48.995Z,74.46
2023-02-11T08:21:17.600Z,74.83
2023-02-11T08:23:46.176Z,74.68
2023-02-11T08:26:15.031Z,74.63
2023-02-11T08:28:43.434Z,73.80
2023-02-11T08:31:11.237Z,73.31
2023-02-11T08:33:40.348Z,73.32
2023-02-11T08:36:09.237Z,73.03
2023-02-11T08:38:36.848Z,73.38
2023-02-11T08:41:04.686Z,73.26
2023-02-11T08:43:32.276Z,72.99
2023-02-11T08:46:02.383Z,72.60
2023-02-11T08:48:30.528Z,72.15
2023-02-11T08:50:58.401Z,71.97
2023-02-11T08:53:25.901Z,71.42
2023-02-11T08:55:53.621Z,71.21
2023-02-11T08:58:21.161Z,71.69
2023-02-11T09:00:49.191Z,71.34
2023-02-11T09:03:18.282Z,71.01
2023-02-11T09:05:47.080Z,70.46
2023-02-11T09:08:13.812Z,69.27
2023-02-11T09:10:40.330Z,68.97
2023-02-11T09:13:08.042Z,68.21
2023-02-11T09:15:35.644Z,67.72
2023-02-11T09:18:02.374Z,67.61
2023-02-11T09:20:29.379Z,67.98
2023-02-11T09:22:56.867Z,68.42
2023-02-11T09:25:25.506Z,68.33
2023-02-11T09:27:53.064Z,67.44
2023-02-11T09:30:22.131Z,68.12
2023-02-11T09:32:50.310Z,67.72
2023-02-11T09:35:20.964Z,67.59
2023-02-11T09:37:49.563Z,67.25
2023-02-11T09:43:02.363Z,67.48
2023-02-11T09:45:33.141Z,67.46
2023-02-11T09:48:03.333Z,66.94
2023-02-11T09:50:31.960Z,66.94
2023-02-11T09:52:59.732Z,64.85
2023-02-11T09:55:27.169Z,65.56
2023-02-11T09:57:56.066Z,66.27
2023-02-11T10:00:24.436Z,66.60
2023-02-11T10:02:52.983Z,67.30
2023-02-11T10:25:06.620Z,65.94
2023-02-11T10:27:33.202Z,65.59
2023-02-11T10:30:00.793Z,65.29
2023-02-11T10:32:27.249Z,65.48
2023-02-11T10:34:53.662Z,65.25
2023-02-11T10:37:20.083Z,64.82
2023-02-11T10:39:47.200Z,64.77
2023-02-11T10:42:13.757Z,64.72
2023-02-11T10:44:40.606Z,65.25
2023-02-11T10:47:07.138Z,65.14
2023-02-11T10:49:33.603Z,65.15
2023-02-11T10:52:01.153Z,64.61
2023-02-11T10:54:27.726Z,63.26
2023-02-11T10:56:56.329Z,63.27
2023-02-11T10:59:23.949Z,63.33
2023-02-11T11:01:51.586Z,63.55
2023-02-11T11:04:19.144Z,63.28
2023-02-11T11:06:45.746Z,63.94
2023-02-11T11:09:12.181Z,63.73
2023-02-11T11:11:38.922Z,63.65
2023-02-11T11:14:05.548Z,62.97
2023-02-11T11:16:32.151Z,62.53
2023-02-11T11:18:58.600Z,62.44
2023-02-11T11:21:25.030Z,61.15
2023-02-11T11:23:51.448Z,61.35
2023-02-11T11:26:18.525Z,60.27
2023-02-11T11:28:45.029Z,60.62
2023-02-11T11:31:11.832Z,60.87
2023-02-11T11:33:39.350Z,60.78
2023-02-11T11:36:06.902Z,61.56
2023-02-11T11:38:33.341Z,61.70
2023-02-11T11:41:00.156Z,60.96
2023-02-11T11:43:26.620Z,61.58
2023-02-11T11:45:53.333Z,62.39
2023-02-11T11:48:19.926Z,63.09
2023-02-11T11:50:46.518Z,62.90
2023-02-11T11:53:12.939Z,62.93
2023-02-11T11:55:39.693Z,63.27
2023-02-11T11:58:06.196Z,62.74
2023-02-11T12:00:33.903Z,63.55
2023-02-11T12:03:01.530Z,62.48
2023-02-11T12:05:29.093Z,62.60
2023-02-11T12:07:55.811Z,61.89
2023-02-11T12:10:22.234Z,62.44
2023-02-11T12:12:48.643Z,61.94
2023-02-11T12:15:15.092Z,62.06
2023-02-11T12:17:41.485Z,60.99
2023-02-11T12:20:08.650Z,60.99
2023-02-11T12:22:35.069Z,60.83
2023-02-11T12:25:01.858Z,60.50
2023-02-11T12:27:29.444Z,60.26
2023-02-11T12:29:57.069Z,59.98
2023-02-11T12:32:23.480Z,60.57
2023-02-11T12:34:50.262Z,60.63
2023-02-11T12:37:17.834Z,60.67
2023-02-11T12:39:44.470Z,60.80
2023-02-11T12:42:10.900Z,60.15
2023-02-11T12:44:37.676Z,58.62
2023-02-11T12:47:04.283Z,58.95
2023-02-11T12:49:30.872Z,59.66
2023-02-11T12:51:57.722Z,60.11
2023-02-11T12:54:25.070Z,59.08
2023-02-11T12:56:51.649Z,59.00
2023-02-11T12:59:18.234Z,57.60
2023-02-11T13:01:44.910Z,55.46
2023-02-11T13:04:12.418Z,56.37
2023-02-11T13:06:38.820Z,55.84
2023-02-11T13:09:05.248Z,54.12
2023-02-11T13:11:32.194Z,55.11
2023-02-11T13:13:58.874Z,53.11
2023-02-11T13:16:26.524Z,52.80
2023-02-11T13:18:53.275Z,52.28
2023-02-11T13:21:19.901Z,53.16
2023-02-11T13:23:46.309Z,53.82
2023-02-11T13:26:12.732Z,53.20
2023-02-11T13:28:39.843Z,52.42
2023-02-11T13:31:07.667Z,50.75
2023-02-11T13:33:35.044Z,49.74
2023-02-11T13:36:04.365Z,50.97
2023-02-11T13:38:32.234Z,50.66
2023-02-11T13:40:58.672Z,49.98
2023-02-11T13:43:25.107Z,50.10
2023-02-11T13:45:51.558Z,50.32
2023-02-11T13:48:18.194Z,50.43
2023-02-11T13:50:44.641Z,50.56
2023-02-11T13:53:11.076Z,50.35
2023-02-11T13:55:37.481Z,50.02
2023-02-11T13:58:03.873Z,51.20
2023-02-11T14:00:30.324Z,50.28
2023-02-11T14:02:57.527Z,50.76
2023-02-11T14:05:24.229Z,51.29
2023-02-11T14:07:51.751Z,51.31
2023-02-11T14:10:18.386Z,51.27
2023-02-11T14:12:45.058Z,51.44
2023-02-11T14:15:12.594Z,51.72
2023-02-11T14:17:39.002Z,51.65
2023-02-11T14:20:05.447Z,52.08
2023-02-11T14:22:31.903Z,52.49
2023-02-11T14:24:58.989Z,53.80
2023-02-11T14:27:25.679Z,54.42
2023-02-11T14:29:52.309Z,54.58
2023-02-11T14:32:18.762Z,54.08
2023-02-11T14:34:45.518Z,54.34
2023-02-11T14:37:11.947Z,53.96
2023-02-11T14:39:38.755Z,53.92
2023-02-11T14:42:06.336Z,53.06
2023-02-11T14:44:32.944Z,52.47
2023-02-11T14:46:59.545Z,52.60
2023-02-11T14:49:27.219Z,53.14
2023-02-11T14:51:53.715Z,53.18
2023-02-11T14:54:20.403Z,53.09
2023-02-11T14:56:47.071Z,52.70
2023-02-11T14:59:15.612Z,51.62
2023-02-11T15:01:42.232Z,51.13
2023-02-11T15:04:09.797Z,51.08
2023-02-11T15:06:36.201Z,51.47
2023-02-11T15:09:02.626Z,50.72
2023-02-11T15:11:29.023Z,50.63
2023-02-11T15:13:57.121Z,50.60
2023-02-11T15:16:23.793Z,50.46
2023-02-11T15:18:50.410Z,50.92
2023-02-11T15:21:16.847Z,51.36
2023-02-11T15:23:43.673Z,51.83
2023-02-11T15:26:10.244Z,51.81
2023-02-11T15:28:36.994Z,51.78
2023-02-11T15:31:03.863Z,51.28
2023-02-11T15:33:31.093Z,52.32
2023-02-11T15:35:58.712Z,52.49
2023-02-11T15:38:25.306Z,52.81
2023-02-11T15:40:51.969Z,52.80
2023-02-11T15:43:19.538Z,53.88
2023-02-11T15:45:48.944Z,54.11
2023-02-11T15:48:15.725Z,54.13
2023-02-11T15:50:42.343Z,54.10
2023-02-11T15:53:08.958Z,53.77
2023-02-11T15:55:35.590Z,53.98
2023-02-11T15:58:01.966Z,53.80
2023-02-11T16:00:29.012Z,53.65
2023-02-11T16:02:55.481Z,54.89
2023-02-11T16:05:22.186Z,55.15
2023-02-11T16:07:48.844Z,55.25
2023-02-11T16:10:15.269Z,55.21
2023-02-11T16:12:42.188Z,54.48
2023-02-11T16:15:08.617Z,55.20
2023-02-11T16:17:35.402Z,54.30
2023-02-11T16:20:02.173Z,55.60
2023-02-11T16:22:29.647Z,55.30
2023-02-11T16:24:56.101Z,56.02
2023-02-11T16:27:22.845Z,56.25
2023-02-11T16:29:49.279Z,57.44
2023-02-11T16:32:15.711Z,57.64
2023-02-11T16:34:42.124Z,58.80
2023-02-11T16:37:09.524Z,58.33
2023-02-11T16:39:37.089Z,58.73
2023-02-11T16:42:05.765Z,58.89
2023-02-11T16:44:33.555Z,59.60
2023-02-11T16:47:00.042Z,59.48
2023-02-11T16:49:26.514Z,59.31
2023-02-11T16:51:53.101Z,59.86
2023-02-11T16:54:19.722Z,59.91
2023-02-11T16:56:46.164Z,60.06
2023-02-11T16:59:12.934Z,59.58
2023-02-11T17:01:39.597Z,59.82
2023-02-11T17:04:06.398Z,59.90
2023-02-11T17:06:32.918Z,60.53
2023-02-11T17:08:59.366Z,60.77
2023-02-11T17:11:25.766Z,60.93
2023-02-11T17:13:52.175Z,60.77
2023-02-11T17:16:20.265Z,60.93
2023-02-11T17:18:46.663Z,60.34
2023-02-11T17:21:13.458Z,60.10
2023-02-11T17:23:39.913Z,59.98
2023-02-11T17:26:06.358Z,59.89
2023-02-11T17:28:32.973Z,59.56
2023-02-11T17:30:59.411Z,59.54
2023-02-11T17:33:25.869Z,59.62
2023-02-11T17:35:52.570Z,59.62
2023-02-11T17:38:19.149Z,59.53
2023-02-11T17:40:45.592Z,59.48
2023-02-11T17:43:13.053Z,59.18
2023-02-11T17:45:40.616Z,59.21
2023-02-11T17:48:09.173Z,59.47
2023-02-11T17:50:35.759Z,59.54
2023-02-11T17:53:02.226Z,59.04
2023-02-11T17:55:28.646Z,58.18
2023-02-11T17:57:55.539Z,57.36
2023-02-11T18:00:22.135Z,57.74
2023-02-11T18:02:50.739Z,56.20
2023-02-11T18:05:18.357Z,56.93
2023-02-11T18:07:45.948Z,56.74
2023-02-11T18:10:19.236Z,56.48
2023-02-11T18:12:46.160Z,56.16
2023-02-11T18:15:12.754Z,55.92
2023-02-11T18:17:39.345Z,56.39
2023-02-11T18:20:05.925Z,57.18
2023-02-11T18:22:34.541Z,56.86
2023-02-11T18:25:00.956Z,57.17
2023-02-11T18:27:27.469Z,56.53
2023-02-11T18:29:53.921Z,55.81
2023-02-11T18:32:20.343Z,55.99
2023-02-11T18:34:46.772Z,56.04
2023-02-11T18:37:14.113Z,56.22
2023-02-11T18:39:40.699Z,56.05
2023-02-11T18:42:08.336Z,56.71
2023-02-11T18:44:34.727Z,56.37
2023-02-11T18:47:01.527Z,56.31
2023-02-11T18:49:29.088Z,56.56
2023-02-11T18:51:55.718Z,56.11
2023-02-11T18:54:24.322Z,55.72
2023-02-11T18:56:51.943Z,55.72
2023-02-11T18:59:18.547Z,55.03
2023-02-11T19:01:45.331Z,54.19
2023-02-11T19:04:12.794Z,53.77
2023-02-11T19:06:39.532Z,54.76
2023-02-11T19:09:06.132Z,54.53
2023-02-11T19:11:32.532Z,54.96
2023-02-11T19:13:58.937Z,55.46
2023-02-11T19:16:25.397Z,55.09
2023-02-11T19:18:52.513Z,55.00
2023-02-11T19:21:19.127Z,55.85
2023-02-11T19:23:46.755Z,56.01
2023-02-11T19:26:14.405Z,55.68
2023-02-11T19:28:42.010Z,55.23
2023-02-11T19:31:08.570Z,55.77
2023-02-11T19:33:35.229Z,56.16
2023-02-11T19:36:01.845Z,56.50
2023-02-11T19:38:29.431Z,54.39
2023-02-11T19:40:58.231Z,54.12
2023-02-11T19:43:25.627Z,54.61
2023-02-11T19:45:52.215Z,54.84
2023-02-11T19:48:18.880Z,55.22
2023-02-11T19:50:45.293Z,56.09
2023-02-11T19:53:12.020Z,56.61
2023-02-11T19:55:38.459Z,56.71
2023-02-11T19:58:05.239Z,56.48
2023-02-11T20:00:31.826Z,56.52
2023-02-11T20:02:58.531Z,56.83
2023-02-11T20:05:26.021Z,56.04
2023-02-11T20:07:52.638Z,56.04
2023-02-11T20:10:19.239Z,56.15
2023-02-11T20:12:46.845Z,56.06
2023-02-11T20:15:13.464Z,55.98
2023-02-11T20:17:39.885Z,54.61
2023-02-11T20:20:06.328Z,54.93
2023-02-11T20:22:33.515Z,55.67
2023-02-11T20:25:00.973Z,55.20
2023-02-11T20:27:27.775Z,55.23
2023-02-11T20:29:55.182Z,55.57
2023-02-11T20:32:22.037Z,55.29
2023-02-11T20:34:48.548Z,54.80
2023-02-11T20:37:14.944Z,54.97
2023-02-11T20:39:41.396Z,54.83
2023-02-11T20:42:07.822Z,54.78
2023-02-11T20:44:34.286Z,54.16
2023-02-11T20:47:01.002Z,54.14
2023-02-11T20:49:27.609Z,54.45
2023-02-11T20:51:54.461Z,53.94
2023-02-11T20:54:20.983Z,54.07
2023-02-11T20:56:48.614Z,54.34
2023-02-11T20:59:16.058Z,55.08
2023-02-11T21:01:42.814Z,54.76
2023-02-11T21:04:10.238Z,54.98
2023-02-11T21:06:37.873Z,54.22
2023-02-11T21:09:05.472Z,55.19
2023-02-11T21:11:32.101Z,54.53
2023-02-11T21:13:58.575Z,55.17
2023-02-11T21:16:25.039Z,55.47
2023-02-11T21:18:51.528Z,55.04
2023-02-11T21:21:17.965Z,55.90
2023-02-11T21:23:44.434Z,55.94
2023-02-11T21:26:10.835Z,56.49
2023-02-11T21:28:40.464Z,56.01
2023-02-11T21:31:07.506Z,56.35
2023-02-11T21:33:35.675Z,56.47
2023-02-11T21:36:02.260Z,56.31
2023-02-11T21:38:28.662Z,56.85
2023-02-11T21:40:55.106Z,56.81
2023-02-11T21:43:21.532Z,56.60
2023-02-11T21:45:48.795Z,57.09
2023-02-11T21:48:15.252Z,57.20
2023-02-11T21:50:42.130Z,57.15
2023-02-11T21:53:08.711Z,57.60
2023-02-11T21:55:35.313Z,57.58
2023-02-11T21:58:02.905Z,57.43
2023-02-11T22:00:29.423Z,57.81
2023-02-11T22:02:55.849Z,57.35
2023-02-11T22:05:22.297Z,57.83
2023-02-11T22:07:49.408Z,57.71
2023-02-11T22:10:16.087Z,57.75
2023-02-11T22:12:42.757Z,58.16
2023-02-11T22:15:09.450Z,57.82
2023-02-11T22:17:37.100Z,58.39
2023-02-11T22:20:04.682Z,58.98
2023-02-11T22:22:32.276Z,59.91
2023-02-11T22:24:59.862Z,59.99
2023-02-11T22:27:28.561Z,59.59
2023-02-11T22:29:56.067Z,59.83
2023-02-11T22:32:23.025Z,60.18
2023-02-11T22:34:53.217Z,59.73
2023-02-11T22:37:23.016Z,59.89
2023-02-11T22:39:49.992Z,59.90
2023-02-11T22:42:17.562Z,61.36
2023-02-11T22:44:45.186Z,61.33
2023-02-11T22:47:12.106Z,61.55
2023-02-11T22:49:41.082Z,61.36
2023-02-11T22:52:09.362Z,61.35
2023-02-11T22:54:36.971Z,61.05
2023-02-11T22:57:04.627Z,61.47
2023-02-11T22:59:32.274Z,61.26
2023-02-11T23:02:00.027Z,61.55
2023-02-11T23:04:27.534Z,60.61
2023-02-11T23:06:54.254Z,61.10
2023-02-11T23:09:21.838Z,60.78
2023-02-11T23:11:50.583Z,60.73
2023-02-11T23:14:18.089Z,60.79
2023-02-11T23:16:44.814Z,60.68
2023-02-11T23:19:12.433Z,60.44
2023-02-11T23:21:40.038Z,60.34
2023-02-11T23:24:07.647Z,59.91
2023-02-11T23:26:34.477Z,60.12
2023-02-11T23:29:02.024Z,60.22
2023-02-11T23:31:28.897Z,59.80
2023-02-11T23:33:57.277Z,60.12
2023-02-11T23:36:26.146Z,60.83
2023-02-11T23:38:53.496Z,61.57
2023-02-11T23:41:22.085Z,60.85
2023-02-11T23:43:50.771Z,60.09
2023-02-11T23:46:18.383Z,60.11
2023-02-11T23:48:47.592Z,60.24
2023-02-11T23:51:14.505Z,60.41
2023-02-11T23:53:43.093Z,60.69
2023-02-11T23:56:09.715Z,60.37
2023-02-11T23:58:38.381Z,60.51
